Time;durP1;ratioP1;P1;durP2;ratioP2;P2;SDS_P1;SDS_P2;PMS_P1;PMS_P2;Temp;Humidity;BMP_temperature;BMP_pressure;BME280_temperature;BME280_humidity;BME280_pressure;Samples;Min_cycle;Max_cycle;Signal;HPM_P1;HPM_P2
2022/01/11 00:00:44;;;;;;;13.38;3.03;;;;;;;;;;4792014;28;20038;-69
2022/01/11 00:03:11;;;;;;;12.40;2.67;;;;;;;;;;4773201;28;20034;-68
2022/01/11 00:05:44;;;;;;;11.40;2.63;;;;;;;;;;4771512;28;21791;-72
2022/01/11 00:08:12;;;;;;;8.80;2.30;;;;;;;;;;4787725;28;20038;-67
2022/01/11 00:13:36;;;;;;;10.05;2.60;;;;;;;;;;4724163;29;20094;-70
2022/01/11 00:16:03;;;;;;;8.70;2.20;;;;;;;;;;4725287;29;20062;-69
2022/01/11 00:18:29;;;;;;;13.25;2.45;;;;;;;;;;4718451;29;20287;-68
2022/01/11 00:20:59;;;;;;;15.30;2.72;;;;;;;;;;4714536;29;20728;-68
2022/01/11 00:25:56;;;;;;;9.32;2.30;;;;;;;;;;4725796;29;20137;-68
2022/01/11 00:28:23;;;;;;;10.75;2.20;;;;;;;;;;4725621;29;20048;-67
2022/01/11 00:30:50;;;;;;;11.15;2.38;;;;;;;;;;4728098;29;21057;-69
2022/01/11 00:33:23;;;;;;;8.00;2.00;;;;;;;;;;4726087;29;20040;-68
2022/01/11 00:35:57;;;;;;;11.27;2.20;;;;;;;;;;4724131;29;20040;-69
2022/01/11 00:38:24;;;;;;;11.30;2.35;;;;;;;;;;4722568;29;20048;-68
2022/01/11 00:40:53;;;;;;;10.73;2.33;;;;;;;;;;4727521;29;20154;-68
2022/01/11 00:43:21;;;;;;;8.43;2.30;;;;;;;;;;4725572;29;20470;-72
2022/01/11 00:45:48;;;;;;;10.70;2.00;;;;;;;;;;4725615;29;20071;-68
2022/01/11 00:48:15;;;;;;;11.93;2.45;;;;;;;;;;4725894;29;20044;-67
2022/01/11 00:50:41;;;;;;;11.93;2.28;;;;;;;;;;4766646;28;20090;-68
2022/01/11 00:53:09;;;;;;;11.68;1.80;;;;;;;;;;4766102;28;20094;-67
2022/01/11 00:55:35;;;;;;;12.10;2.05;;;;;;;;;;4787915;28;20046;-67
2022/01/11 00:58:04;;;;;;;;;;;;;;;;;;4788769;28;20280;-68
2022/01/11 01:00:34;;;;;;;9.40;2.10;;;;;;;;;;4789315;28;20743;-67
2022/01/11 01:03:01;;;;;;;10.25;2.35;;;;;;;;;;4783888;28;20917;-67
2022/01/11 01:05:27;;;;;;;12.40;2.45;;;;;;;;;;4788922;28;20042;-67
2022/01/11 01:07:54;;;;;;;11.02;2.08;;;;;;;;;;4788319;28;21868;-67
2022/01/11 01:10:29;;;;;;;8.85;2.15;;;;;;;;;;4788262;28;20892;-67
2022/01/11 01:12:57;;;;;;;8.27;1.83;;;;;;;;;;4770908;28;20030;-68
2022/01/11 01:15:25;;;;;;;10.65;2.15;;;;;;;;;;4783215;28;20981;-67
2022/01/11 01:17:51;;;;;;;12.55;2.00;;;;;;;;;;4790999;28;20030;-67
2022/01/11 01:20:20;;;;;;;15.00;2.30;;;;;;;;;;4796898;28;20138;-67
2022/01/11 01:22:50;;;;;;;9.00;1.95;;;;;;;;;;4789641;28;20030;-67
2022/01/11 01:25:17;;;;;;;11.68;2.10;;;;;;;;;;4800238;28;20050;-66
2022/01/11 01:27:44;;;;;;;11.00;1.83;;;;;;;;;;4826196;28;20168;-67
2022/01/11 01:30:10;;;;;;;;;;;;;;;;;;4786389;28;20390;-66
2022/01/11 01:32:36;;;;;;;9.27;1.95;;;;;;;;;;4787026;28;19922;-68
2022/01/11 01:35:05;;;;;;;10.27;2.33;;;;;;;;;;4788234;28;20081;-68
2022/01/11 01:37:31;;;;;;;12.75;2.00;;;;;;;;;;4765510;28;20661;-66
2022/01/11 01:39:57;;;;;;;;;;;;;;;;;;4764519;28;21494;-66
2022/01/11 01:42:26;;;;;;;11.88;2.13;;;;;;;;;;4784404;28;19917;-66
2022/01/11 01:44:52;;;;;;;11.13;2.40;;;;;;;;;;4766318;28;20510;-66
2022/01/11 01:47:22;;;;;;;13.75;2.45;;;;;;;;;;4767887;28;20035;-66
2022/01/11 01:49:48;;;;;;;11.70;2.60;;;;;;;;;;4767883;28;20038;-68
2022/01/11 01:52:15;;;;;;;12.75;2.33;;;;;;;;;;4783944;28;20291;-66
2022/01/11 01:54:42;;;;;;;9.40;1.90;;;;;;;;;;4763347;28;20813;-67
2022/01/11 01:57:08;;;;;;;9.35;2.08;;;;;;;;;;4763743;28;21487;-67
2022/01/11 01:59:35;;;;;;;8.15;1.90;;;;;;;;;;4764864;28;20035;-67
2022/01/11 02:02:02;;;;;;;11.68;2.38;;;;;;;;;;4764912;28;20042;-67
2022/01/11 02:04:28;;;;;;;;;;;;;;;;;;4760169;28;20047;-67
2022/01/11 02:06:54;;;;;;;10.15;1.88;;;;;;;;;;4774617;28;19918;-66
2022/01/11 02:09:21;;;;;;;10.68;2.13;;;;;;;;;;4764339;28;20130;-67
2022/01/11 02:11:47;;;;;;;;;;;;;;;;;;4766702;28;20031;-68
2022/01/11 02:14:13;;;;;;;11.02;2.10;;;;;;;;;;4760999;28;19922;-67
2022/01/11 02:16:39;;;;;;;12.95;2.17;;;;;;;;;;4761436;28;20035;-68
2022/01/11 02:19:06;;;;;;;13.70;2.38;;;;;;;;;;4766987;28;20035;-68
2022/01/11 02:21:32;;;;;;;10.73;1.92;;;;;;;;;;4764567;28;20027;-68
2022/01/11 02:24:00;;;;;;;11.35;1.80;;;;;;;;;;4763053;28;20032;-67
2022/01/11 02:26:26;;;;;;;11.98;2.20;;;;;;;;;;4759648;28;20516;-67
2022/01/11 02:28:53;;;;;;;12.38;1.98;;;;;;;;;;4766809;28;20027;-67
2022/01/11 02:31:21;;;;;;;12.57;2.67;;;;;;;;;;4761639;28;20101;-67
2022/01/11 02:33:49;;;;;;;12.05;2.45;;;;;;;;;;4766900;28;20363;-67
2022/01/11 02:36:18;;;;;;;12.10;2.40;;;;;;;;;;4766284;28;20039;-69
2022/01/11 02:38:46;;;;;;;10.50;2.15;;;;;;;;;;4761661;28;20046;-69
2022/01/11 02:41:12;;;;;;;9.80;2.00;;;;;;;;;;4764863;28;20039;-69
2022/01/11 02:43:48;;;;;;;13.75;2.60;;;;;;;;;;4764318;28;20031;-70
2022/01/11 02:46:15;;;;;;;11.05;2.13;;;;;;;;;;4765822;28;21204;-68
2022/01/11 02:48:42;;;;;;;9.85;1.90;;;;;;;;;;4765211;28;20712;-69
2022/01/11 02:51:09;;;;;;;10.30;2.13;;;;;;;;;;4759556;28;20034;-69
2022/01/11 02:53:49;;;;;;;10.80;1.92;;;;;;;;;;4769140;28;20072;-69
2022/01/11 02:56:16;;;;;;;12.25;2.22;;;;;;;;;;4781486;28;20136;-69
2022/01/11 02:58:42;;;;;;;11.45;2.15;;;;;;;;;;4767423;28;20042;-68
2022/01/11 03:01:09;;;;;;;10.15;2.03;;;;;;;;;;4782741;28;20035;-69
2022/01/11 03:03:35;;;;;;;;;;;;;;;;;;4780600;28;22352;-69
2022/01/11 03:06:03;;;;;;;11.40;2.15;;;;;;;;;;4782781;28;19928;-69
2022/01/11 03:08:30;;;;;;;14.88;2.47;;;;;;;;;;4782376;28;20103;-69
2022/01/11 03:10:57;;;;;;;10.48;1.98;;;;;;;;;;4783218;28;20046;-69
2022/01/11 03:13:23;;;;;;;11.50;2.00;;;;;;;;;;4763969;28;20682;-69
2022/01/11 03:15:50;;;;;;;13.85;2.38;;;;;;;;;;4778223;28;20128;-69
2022/01/11 03:18:16;;;;;;;9.75;1.80;;;;;;;;;;4763431;28;20066;-69
2022/01/11 03:20:44;;;;;;;10.60;1.95;;;;;;;;;;4783611;28;20037;-69
2022/01/11 03:23:12;;;;;;;10.77;2.10;;;;;;;;;;4780767;28;20041;-69
2022/01/11 03:25:38;;;;;;;11.85;1.80;;;;;;;;;;4781049;28;21677;-69
2022/01/11 03:28:04;;;;;;;11.95;2.17;;;;;;;;;;4776743;28;20034;-68
2022/01/11 03:30:31;;;;;;;10.23;1.95;;;;;;;;;;4784149;28;20030;-70
2022/01/11 03:32:57;;;;;;;8.82;1.77;;;;;;;;;;4780957;28;20053;-68
2022/01/11 03:35:24;;;;;;;13.73;2.90;;;;;;;;;;4782295;28;20034;-68
2022/01/11 03:37:51;;;;;;;10.93;2.00;;;;;;;;;;4784450;28;20030;-68
2022/01/11 03:40:18;;;;;;;11.30;2.00;;;;;;;;;;4778465;28;20030;-68
2022/01/11 03:42:45;;;;;;;11.30;1.67;;;;;;;;;;4781939;28;20034;-68
2022/01/11 03:45:12;;;;;;;9.95;1.95;;;;;;;;;;4780514;28;20738;-69
2022/01/11 03:47:38;;;;;;;10.90;1.88;;;;;;;;;;4782076;28;20336;-68
2022/01/11 03:50:05;;;;;;;11.63;2.58;;;;;;;;;;4766012;28;22686;-68
2022/01/11 03:52:31;;;;;;;;;;;;;;;;;;4778215;28;20092;-68
2022/01/11 03:57:24;;;;;;;10.27;1.80;;;;;;;;;;4781294;28;20046;-68
2022/01/11 03:59:50;;;;;;;10.70;1.92;;;;;;;;;;4764030;28;20299;-68
2022/01/11 04:02:20;;;;;;;;;;;;;;;;;;4778159;28;20092;-68
2022/01/11 04:04:52;;;;;;;9.20;1.58;;;;;;;;;;4776531;28;19922;-68
2022/01/11 04:07:19;;;;;;;7.38;1.73;;;;;;;;;;4782061;28;20034;-68
2022/01/11 04:09:45;;;;;;;8.73;2.00;;;;;;;;;;4763175;28;20646;-69
2022/01/11 04:12:11;;;;;;;11.25;2.00;;;;;;;;;;4782078;28;20762;-69
2022/01/11 04:14:38;;;;;;;10.43;2.33;;;;;;;;;;4764556;28;20038;-69
2022/01/11 04:17:04;;;;;;;;;;;;;;;;;;4777458;28;20031;-70
2022/01/11 04:19:30;;;;;;;11.18;1.73;;;;;;;;;;4780145;28;19921;-70
2022/01/11 04:21:57;;;;;;;11.93;2.67;;;;;;;;;;4779920;28;20053;-71
2022/01/11 04:24:24;;;;;;;12.23;2.33;;;;;;;;;;4780100;28;22923;-69
2022/01/11 04:26:50;;;;;;;;;;;;;;;;;;4759707;28;21938;-67
2022/01/11 04:29:16;;;;;;;10.18;1.92;;;;;;;;;;4784051;28;19918;-67
2022/01/11 04:31:43;;;;;;;12.63;2.28;;;;;;;;;;4781788;28;22774;-68
2022/01/11 04:34:10;;;;;;;9.38;1.70;;;;;;;;;;4783264;28;20832;-68
2022/01/11 04:36:36;;;;;;;9.45;1.80;;;;;;;;;;4784885;28;20063;-70
2022/01/11 04:39:02;;;;;;;;;;;;;;;;;;4764036;28;20582;-70
2022/01/11 04:41:32;;;;;;;11.00;1.90;;;;;;;;;;4761792;28;20215;-69
2022/01/11 04:43:58;;;;;;;12.30;2.35;;;;;;;;;;4766486;28;20031;-68
2022/01/11 04:46:26;;;;;;;9.10;1.60;;;;;;;;;;4783290;28;20818;-68
2022/01/11 04:48:53;;;;;;;9.20;1.90;;;;;;;;;;4765414;28;20105;-68
2022/01/11 04:51:20;;;;;;;9.95;1.90;;;;;;;;;;4779830;28;20774;-68
2022/01/11 04:53:49;;;;;;;10.02;1.88;;;;;;;;;;4767074;28;20051;-68
2022/01/11 04:56:16;;;;;;;10.40;2.00;;;;;;;;;;4766864;28;20864;-67
2022/01/11 04:58:42;;;;;;;11.00;2.03;;;;;;;;;;4785451;28;20082;-69
2022/01/11 05:01:09;;;;;;;9.38;1.80;;;;;;;;;;4786634;28;20750;-69
2022/01/11 05:03:35;;;;;;;10.23;1.80;;;;;;;;;;4781081;28;20046;-70
2022/01/11 05:06:01;;;;;;;8.32;1.45;;;;;;;;;;4767846;28;20305;-68
2022/01/11 05:08:28;;;;;;;9.75;1.90;;;;;;;;;;4782319;28;20113;-68
2022/01/11 05:10:54;;;;;;;10.57;2.00;;;;;;;;;;4784607;28;20023;-68
2022/01/11 05:13:21;;;;;;;11.85;1.92;;;;;;;;;;4767321;28;20081;-68
2022/01/11 05:15:47;;;;;;;;;;;;;;;;;;4780710;28;20881;-67
2022/01/11 05:18:14;;;;;;;11.00;1.83;;;;;;;;;;4786351;28;20390;-68
2022/01/11 05:20:40;;;;;;;;;;;;;;;;;;4786445;28;20318;-68
2022/01/11 05:23:06;;;;;;;8.30;1.73;;;;;;;;;;4782504;28;20494;-68
2022/01/11 05:25:32;;;;;;;9.73;1.85;;;;;;;;;;4762321;28;20172;-68
2022/01/11 05:27:59;;;;;;;9.13;1.80;;;;;;;;;;4762638;28;22403;-68
2022/01/11 05:30:26;;;;;;;10.00;1.75;;;;;;;;;;4767502;28;20035;-68
2022/01/11 05:32:53;;;;;;;10.23;2.00;;;;;;;;;;4783399;28;20054;-68
2022/01/11 05:35:20;;;;;;;9.35;1.70;;;;;;;;;;4785892;28;20371;-68
2022/01/11 05:37:50;;;;;;;9.23;1.83;;;;;;;;;;4763302;28;20173;-68
2022/01/11 05:40:17;;;;;;;6.60;1.45;;;;;;;;;;4784358;28;20041;-68
2022/01/11 05:42:44;;;;;;;8.93;1.60;;;;;;;;;;4788391;28;20668;-68
2022/01/11 05:45:11;;;;;;;8.82;1.63;;;;;;;;;;4780413;28;20039;-68
2022/01/11 05:47:37;;;;;;;7.93;1.50;;;;;;;;;;4782293;28;20734;-68
2022/01/11 05:50:05;;;;;;;10.23;1.52;;;;;;;;;;4779621;28;20117;-68
2022/01/11 05:52:31;;;;;;;9.00;1.60;;;;;;;;;;4766476;28;20781;-68
2022/01/11 05:54:58;;;;;;;12.57;1.95;;;;;;;;;;4784330;28;20758;-71
2022/01/11 05:57:24;;;;;;;9.25;1.77;;;;;;;;;;4784240;28;20073;-68
2022/01/11 05:59:50;;;;;;;9.35;2.00;;;;;;;;;;4784251;28;20426;-69
2022/01/11 06:02:17;;;;;;;7.40;1.52;;;;;;;;;;4762345;28;21716;-68
2022/01/11 06:04:43;;;;;;;6.97;1.50;;;;;;;;;;4785055;28;22097;-68
2022/01/11 06:07:09;;;;;;;8.20;1.70;;;;;;;;;;4766223;28;20681;-68
2022/01/11 06:09:35;;;;;;;8.88;1.63;;;;;;;;;;4782949;28;20031;-68
2022/01/11 06:12:04;;;;;;;9.55;1.70;;;;;;;;;;4767563;28;20870;-71
2022/01/11 06:14:31;;;;;;;8.65;1.48;;;;;;;;;;4779369;28;20065;-68
2022/01/11 06:16:57;;;;;;;8.68;1.50;;;;;;;;;;4784028;28;20827;-68
2022/01/11 06:19:23;;;;;;;9.73;1.70;;;;;;;;;;4782269;28;20118;-68
2022/01/11 06:21:50;;;;;;;9.15;1.63;;;;;;;;;;4763070;28;20027;-68
2022/01/11 06:24:16;;;;;;;11.23;1.80;;;;;;;;;;4765805;28;20045;-68
2022/01/11 06:26:42;;;;;;;9.00;1.42;;;;;;;;;;4777510;28;20035;-68
2022/01/11 06:29:09;;;;;;;6.78;1.23;;;;;;;;;;4765647;28;20030;-71
2022/01/11 06:31:35;;;;;;;7.10;1.50;;;;;;;;;;4782444;28;21771;-68
2022/01/11 06:34:01;;;;;;;6.93;1.60;;;;;;;;;;4783227;28;20116;-69
2022/01/11 06:36:28;;;;;;;;;;;;;;;;;;4761747;28;22685;-68
2022/01/11 06:38:57;;;;;;;8.25;1.80;;;;;;;;;;4780318;28;19924;-67
2022/01/11 06:41:23;;;;;;;6.80;1.50;;;;;;;;;;4782089;28;20042;-68
2022/01/11 06:43:52;;;;;;;6.75;1.50;;;;;;;;;;4783349;28;20072;-68
2022/01/11 06:46:20;;;;;;;10.98;1.80;;;;;;;;;;4782298;28;20943;-68
2022/01/11 06:48:47;;;;;;;8.45;1.70;;;;;;;;;;4761375;28;20781;-68
2022/01/11 06:51:13;;;;;;;6.15;1.27;;;;;;;;;;4782384;28;20035;-69
2022/01/11 06:53:39;;;;;;;8.13;1.60;;;;;;;;;;4783768;28;20057;-69
2022/01/11 06:56:06;;;;;;;9.40;2.05;;;;;;;;;;4762469;28;21387;-69
2022/01/11 06:58:32;;;;;;;8.45;1.65;;;;;;;;;;4780806;28;20166;-69
2022/01/11 07:00:59;;;;;;;6.20;1.33;;;;;;;;;;4779212;28;20042;-69
2022/01/11 07:03:27;;;;;;;8.35;1.73;;;;;;;;;;4764343;28;20035;-69
2022/01/11 07:05:54;;;;;;;10.73;2.17;;;;;;;;;;4765159;28;20705;-69
2022/01/11 07:08:20;;;;;;;9.63;1.77;;;;;;;;;;4782004;28;20023;-68
2022/01/11 07:10:46;;;;;;;7.28;1.52;;;;;;;;;;4763054;28;20025;-71
2022/01/11 07:13:20;;;;;;;6.15;1.42;;;;;;;;;;4758980;28;20038;-68
2022/01/11 07:15:46;;;;;;;6.57;1.17;;;;;;;;;;4774159;28;20026;-70
2022/01/11 07:18:13;;;;;;;8.60;1.88;;;;;;;;;;4783157;28;20038;-68
2022/01/11 07:20:43;;;;;;;9.00;1.70;;;;;;;;;;4767427;28;20043;-68
2022/01/11 07:23:10;;;;;;;10.40;1.90;;;;;;;;;;4783661;28;20384;-69
2022/01/11 07:25:38;;;;;;;10.48;2.05;;;;;;;;;;4776427;28;20065;-68
2022/01/11 07:28:05;;;;;;;8.18;1.90;;;;;;;;;;4781111;28;20039;-69
2022/01/11 07:30:35;;;;;;;9.48;2.00;;;;;;;;;;4780954;28;20030;-68
2022/01/11 07:33:01;;;;;;;9.25;2.25;;;;;;;;;;4764721;28;20031;-70
2022/01/11 07:35:28;;;;;;;8.52;2.55;;;;;;;;;;4782534;28;21146;-69
2022/01/11 07:37:54;;;;;;;8.55;2.08;;;;;;;;;;4778350;28;20089;-68
2022/01/11 07:40:20;;;;;;;9.60;2.38;;;;;;;;;;4784069;28;20169;-68
2022/01/11 07:42:48;;;;;;;7.68;2.00;;;;;;;;;;4783217;28;20029;-69
2022/01/11 07:45:15;;;;;;;8.23;2.10;;;;;;;;;;4782931;28;20797;-68
2022/01/11 07:47:41;;;;;;;;;;;;;;;;;;4782613;28;20168;-68
2022/01/11 07:50:08;;;;;;;8.93;2.35;;;;;;;;;;4761515;28;20764;-71
2022/01/11 07:52:34;;;;;;;9.60;2.53;;;;;;;;;;4781750;28;20038;-69
2022/01/11 07:55:26;;;;;;;9.70;2.83;;;;;;;;;;4761380;28;20734;-69
2022/01/11 07:57:52;;;;;;;14.13;4.25;;;;;;;;;;4762591;28;20059;-70
2022/01/11 08:00:18;;;;;;;12.30;3.80;;;;;;;;;;4760862;28;20296;-70
2022/01/11 08:02:51;;;;;;;12.43;4.00;;;;;;;;;;4761187;28;20738;-69
2022/01/11 08:05:18;;;;;;;12.30;4.30;;;;;;;;;;4761423;28;20054;-69
2022/01/11 08:10:42;;;;;;;11.90;3.13;;;;;;;;;;4764559;28;20045;-69
2022/01/11 08:13:10;;;;;;;13.13;4.75;;;;;;;;;;4767633;28;20027;-70
2022/01/11 08:15:40;;;;;;;13.73;3.75;;;;;;;;;;4766370;28;20792;-69
2022/01/11 08:18:08;;;;;;;10.85;2.38;;;;;;;;;;4764697;28;20031;-69
2022/01/11 08:20:34;;;;;;;10.07;2.50;;;;;;;;;;4767344;28;20126;-68
2022/01/11 08:23:01;;;;;;;12.35;5.10;;;;;;;;;;4765406;28;20110;-68
2022/01/11 08:25:32;;;;;;;13.73;5.95;;;;;;;;;;4764914;28;20118;-69
2022/01/11 08:27:59;;;;;;;10.02;3.28;;;;;;;;;;4762105;28;20050;-70
2022/01/11 08:30:26;;;;;;;13.45;5.57;;;;;;;;;;4761232;28;20763;-69
2022/01/11 08:32:52;;;;;;;11.02;3.70;;;;;;;;;;4766661;28;20165;-70
2022/01/11 08:35:18;;;;;;;;;;;;;;;;;;4766677;28;20031;-69
2022/01/11 08:37:45;;;;;;;10.30;3.90;;;;;;;;;;4765966;28;20689;-69
2022/01/11 08:40:12;;;;;;;11.00;2.83;;;;;;;;;;4767556;28;20041;-69
2022/01/11 08:42:39;;;;;;;10.95;2.80;;;;;;;;;;4761350;28;21930;-69
2022/01/11 08:45:06;;;;;;;11.05;2.50;;;;;;;;;;4765435;28;20085;-69
2022/01/11 08:47:32;;;;;;;10.07;2.90;;;;;;;;;;4764530;28;20028;-68
2022/01/11 08:50:02;;;;;;;9.68;3.28;;;;;;;;;;4766331;28;20035;-69
2022/01/11 08:52:28;;;;;;;11.25;3.70;;;;;;;;;;4768672;28;21617;-68
2022/01/11 08:54:58;;;;;;;10.57;3.10;;;;;;;;;;4758627;28;20051;-68
2022/01/11 08:57:24;;;;;;;13.40;4.65;;;;;;;;;;4765668;28;20043;-69
2022/01/11 08:59:52;;;;;;;13.63;4.57;;;;;;;;;;4757208;28;20640;-69
2022/01/11 09:02:21;;;;;;;11.48;4.20;;;;;;;;;;4764666;28;20040;-69
2022/01/11 09:04:48;;;;;;;11.48;5.00;;;;;;;;;;4766211;28;20031;-69
2022/01/11 09:07:14;;;;;;;12.07;3.85;;;;;;;;;;4759017;28;20746;-69
2022/01/11 09:09:41;;;;;;;40.58;24.45;;;;;;;;;;4766494;28;20120;-70
2022/01/11 09:12:12;;;;;;;14.98;5.57;;;;;;;;;;4763835;28;20770;-69
2022/01/11 09:14:39;;;;;;;12.75;4.13;;;;;;;;;;4764486;28;20166;-68
2022/01/11 09:17:06;;;;;;;9.90;3.80;;;;;;;;;;4767741;28;20395;-69
2022/01/11 09:19:33;;;;;;;15.48;5.22;;;;;;;;;;4764545;28;20743;-68
2022/01/11 09:21:59;;;;;;;9.32;2.50;;;;;;;;;;4767826;28;20030;-68
2022/01/11 09:24:29;;;;;;;13.80;5.10;;;;;;;;;;4762530;28;20036;-68
2022/01/11 09:27:04;;;;;;;19.00;8.93;;;;;;;;;;4766372;28;20739;-68
2022/01/11 09:29:32;;;;;;;14.68;6.90;;;;;;;;;;4766740;28;20715;-69
2022/01/11 09:31:59;;;;;;;11.10;3.70;;;;;;;;;;4763551;28;20042;-69
2022/01/11 09:34:25;;;;;;;11.48;3.30;;;;;;;;;;4766447;28;20381;-69
2022/01/11 09:36:52;;;;;;;13.90;4.50;;;;;;;;;;4765220;28;20423;-69
2022/01/11 09:39:18;;;;;;;;;;;;;;;;;;4763013;28;20027;-68
2022/01/11 09:41:44;;;;;;;12.23;4.85;;;;;;;;;;4766648;28;19973;-68
2022/01/11 09:44:11;;;;;;;11.40;4.40;;;;;;;;;;4760805;28;20112;-68
2022/01/11 09:46:37;;;;;;;10.57;3.47;;;;;;;;;;4766579;28;20046;-68
2022/01/11 09:49:04;;;;;;;13.35;5.28;;;;;;;;;;4762154;28;20070;-68
2022/01/11 09:51:32;;;;;;;11.50;3.58;;;;;;;;;;4761813;28;20176;-68
2022/01/11 09:53:58;;;;;;;9.55;2.70;;;;;;;;;;4766038;28;21093;-68
2022/01/11 09:56:24;;;;;;;10.38;3.10;;;;;;;;;;4762600;28;20641;-69
2022/01/11 09:58:51;;;;;;;10.40;2.53;;;;;;;;;;4765648;28;20106;-69
2022/01/11 10:01:17;;;;;;;8.60;3.03;;;;;;;;;;4762710;28;20384;-71
2022/01/11 10:03:57;;;;;;;9.35;2.65;;;;;;;;;;4765856;28;20173;-69
2022/01/11 10:06:25;;;;;;;9.77;3.58;;;;;;;;;;4762489;28;20169;-68
2022/01/11 10:08:52;;;;;;;14.35;4.10;;;;;;;;;;4757581;28;20050;-68
2022/01/11 10:11:38;;;;;;;13.02;3.80;;;;;;;;;;4765141;28;20027;-68
2022/01/11 10:14:20;;;;;;;10.98;3.30;;;;;;;;;;4765551;28;20026;-68
2022/01/11 10:16:47;;;;;;;10.70;4.30;;;;;;;;;;4765909;28;20119;-68
2022/01/11 10:19:23;;;;;;;12.00;3.55;;;;;;;;;;4762267;28;20042;-68
2022/01/11 10:21:51;;;;;;;9.23;2.92;;;;;;;;;;4762873;28;20125;-69
2022/01/11 10:24:36;;;;;;;12.43;3.50;;;;;;;;;;4757881;28;22508;-68
2022/01/11 10:27:23;;;;;;;12.00;3.70;;;;;;;;;;4763121;28;20663;-68
2022/01/11 10:29:51;;;;;;;10.10;2.85;;;;;;;;;;4764771;28;20035;-68
2022/01/11 10:32:22;;;;;;;9.60;2.25;;;;;;;;;;4762188;28;20069;-68
2022/01/11 10:34:53;;;;;;;10.48;2.50;;;;;;;;;;4762910;28;20945;-68
2022/01/11 10:37:29;;;;;;;11.98;3.20;;;;;;;;;;4761872;28;20487;-68
2022/01/11 10:40:00;;;;;;;9.48;2.20;;;;;;;;;;4761901;28;20059;-68
2022/01/11 10:42:28;;;;;;;7.43;2.08;;;;;;;;;;4764895;28;20086;-68
2022/01/11 10:44:59;;;;;;;8.52;2.35;;;;;;;;;;4763848;28;21922;-68
2022/01/11 10:47:36;;;;;;;9.32;2.28;;;;;;;;;;4764490;28;20035;-70
2022/01/11 10:50:18;;;;;;;10.90;2.50;;;;;;;;;;4763730;28;20057;-69
2022/01/11 10:52:44;;;;;;;7.85;1.90;;;;;;;;;;4764093;28;20027;-69
2022/01/11 10:55:13;;;;;;;9.07;2.20;;;;;;;;;;4774926;28;20050;-71
2022/01/11 10:57:41;;;;;;;10.52;4.30;;;;;;;;;;4766142;28;20046;-71
2022/01/11 11:00:08;;;;;;;12.35;3.50;;;;;;;;;;4763377;28;20919;-69
2022/01/11 11:02:35;;;;;;;8.23;2.30;;;;;;;;;;4784402;28;20034;-70
2022/01/11 11:05:40;;;;;;;11.20;2.53;;;;;;;;;;4770917;28;20038;-69
2022/01/11 11:08:08;;;;;;;10.15;3.03;;;;;;;;;;4717597;29;20624;-69
2022/01/11 11:10:46;;;;;;;10.57;2.63;;;;;;;;;;4694934;29;20036;-70
2022/01/11 11:13:20;;;;;;;8.93;2.58;;;;;;;;;;4697601;29;20055;-70
2022/01/11 11:15:49;;;;;;;10.43;2.45;;;;;;;;;;4710041;29;20390;-71
2022/01/11 11:18:22;;;;;;;9.50;2.03;;;;;;;;;;4713810;29;20086;-70
2022/01/11 11:20:49;;;;;;;9.55;2.25;;;;;;;;;;4711381;29;20029;-71
2022/01/11 11:23:17;;;;;;;7.90;1.92;;;;;;;;;;4708848;29;20040;-70
2022/01/11 11:25:43;;;;;;;8.35;2.05;;;;;;;;;;4714598;29;20056;-70
2022/01/11 11:28:09;;;;;;;7.93;2.33;;;;;;;;;;4714510;29;20040;-70
2022/01/11 11:30:36;;;;;;;8.88;2.17;;;;;;;;;;4711928;29;20071;-70
2022/01/11 11:33:02;;;;;;;8.68;2.00;;;;;;;;;;4712267;29;20083;-70
2022/01/11 11:35:29;;;;;;;10.00;2.35;;;;;;;;;;4708069;29;20107;-70
2022/01/11 11:38:00;;;;;;;8.93;2.25;;;;;;;;;;4722328;28;20028;-70
2022/01/11 11:40:27;;;;;;;10.32;2.75;;;;;;;;;;4787952;28;20035;-72
2022/01/11 11:42:59;;;;;;;10.45;2.60;;;;;;;;;;4771664;28;20026;-69
2022/01/11 11:45:27;;;;;;;16.85;2.72;;;;;;;;;;4787096;28;20799;-70
2022/01/11 11:48:24;;;;;;;10.60;2.80;;;;;;;;;;4768847;28;20121;-70
2022/01/11 11:50:51;;;;;;;11.85;2.70;;;;;;;;;;4753102;28;20502;-69
2022/01/11 11:53:26;;;;;;;13.20;3.28;;;;;;;;;;4773071;28;20045;-70
2022/01/11 11:56:12;;;;;;;8.90;2.70;;;;;;;;;;4750674;28;20534;-69
2022/01/11 11:58:42;;;;;;;10.02;2.75;;;;;;;;;;4753204;28;20035;-69
2022/01/11 12:01:28;;;;;;;8.38;2.25;;;;;;;;;;4750254;28;20894;-69
2022/01/11 12:03:55;;;;;;;10.45;3.22;;;;;;;;;;4752345;28;20047;-69
2022/01/11 12:06:28;;;;;;;10.20;3.65;;;;;;;;;;4748680;28;20063;-70
2022/01/11 12:09:08;;;;;;;11.15;3.17;;;;;;;;;;4752502;28;20034;-69
2022/01/11 12:11:36;;;;;;;11.25;3.28;;;;;;;;;;4754766;28;20027;-69
2022/01/11 12:14:02;;;;;;;10.73;3.78;;;;;;;;;;4752003;28;20038;-71
2022/01/11 12:16:30;;;;;;;10.55;2.58;;;;;;;;;;4751639;28;20035;-71
2022/01/11 12:19:16;;;;;;;10.02;2.95;;;;;;;;;;4751358;28;20046;-70
2022/01/11 12:21:42;;;;;;;;;;;;;;;;;;4746532;28;20039;-69
2022/01/11 12:24:09;;;;;;;11.38;3.40;;;;;;;;;;4754114;28;19942;-69
2022/01/11 12:26:37;;;;;;;11.25;4.18;;;;;;;;;;4745916;28;20047;-69
2022/01/11 12:29:09;;;;;;;9.88;2.90;;;;;;;;;;4748902;28;20042;-70
2022/01/11 12:31:40;;;;;;;9.73;3.47;;;;;;;;;;4751327;28;20737;-69
2022/01/11 12:34:09;;;;;;;10.07;3.53;;;;;;;;;;4746741;28;20228;-69
2022/01/11 12:36:50;;;;;;;9.68;2.88;;;;;;;;;;4750866;28;20042;-69
2022/01/11 12:39:17;;;;;;;9.82;3.38;;;;;;;;;;4750979;28;20035;-69
2022/01/11 12:41:43;;;;;;;11.45;4.10;;;;;;;;;;4748741;28;20039;-69
2022/01/11 12:44:21;;;;;;;9.95;3.50;;;;;;;;;;4751676;28;20250;-69
2022/01/11 12:47:01;;;;;;;7.72;2.70;;;;;;;;;;4748058;28;20055;-69
2022/01/11 12:49:28;;;;;;;8.45;2.75;;;;;;;;;;4741222;28;22765;-69
2022/01/11 12:52:07;;;;;;;8.98;2.60;;;;;;;;;;4746361;28;20702;-69
2022/01/11 12:54:33;;;;;;;10.23;3.65;;;;;;;;;;4754473;28;20058;-70
2022/01/11 12:57:18;;;;;;;10.15;3.60;;;;;;;;;;4767400;28;20041;-69
2022/01/11 12:59:52;;;;;;;11.27;3.70;;;;;;;;;;4766810;28;20046;-69
2022/01/11 13:02:20;;;;;;;15.15;6.20;;;;;;;;;;4763209;28;20039;-69
2022/01/11 13:04:48;;;;;;;10.77;5.45;;;;;;;;;;4762444;28;20301;-69
2022/01/11 13:07:19;;;;;;;12.93;4.97;;;;;;;;;;4765105;28;20403;-69
2022/01/11 13:09:46;;;;;;;10.25;3.85;;;;;;;;;;4757221;28;20039;-69
2022/01/11 13:12:30;;;;;;;10.35;3.20;;;;;;;;;;4765665;28;20118;-69
2022/01/11 13:15:14;;;;;;;9.63;2.88;;;;;;;;;;4765006;28;20031;-69
2022/01/11 13:17:49;;;;;;;8.93;2.75;;;;;;;;;;4766890;28;20042;-69
2022/01/11 13:20:15;;;;;;;10.98;3.20;;;;;;;;;;4762612;28;20224;-69
2022/01/11 13:23:03;;;;;;;9.20;3.58;;;;;;;;;;4766457;28;20041;-69
2022/01/11 13:25:39;;;;;;;9.40;2.55;;;;;;;;;;4762935;28;20035;-69
2022/01/11 13:28:06;;;;;;;9.73;2.33;;;;;;;;;;4756561;28;20046;-69
2022/01/11 13:30:36;;;;;;;9.13;2.50;;;;;;;;;;4767175;28;20031;-69
2022/01/11 13:33:03;;;;;;;10.30;2.70;;;;;;;;;;4766656;28;20757;-68
2022/01/11 13:35:29;;;;;;;10.48;2.92;;;;;;;;;;4763367;28;20045;-74
2022/01/11 13:37:55;;;;;;;9.40;2.55;;;;;;;;;;4766395;28;20035;-69
2022/01/11 13:40:27;;;;;;;9.38;2.40;;;;;;;;;;4762205;28;21119;-69
2022/01/11 13:43:13;;;;;;;10.00;3.15;;;;;;;;;;4765296;28;20046;-69
2022/01/11 13:45:46;;;;;;;9.27;3.10;;;;;;;;;;4765457;28;20447;-69
2022/01/11 13:48:14;;;;;;;10.23;2.92;;;;;;;;;;4760860;28;20041;-68
2022/01/11 13:51:07;;;;;;;11.73;4.75;;;;;;;;;;4766521;28;20684;-69
2022/01/11 13:53:34;;;;;;;12.05;4.30;;;;;;;;;;4763606;28;20320;-69
2022/01/11 13:56:02;;;;;;;10.45;3.75;;;;;;;;;;4772974;28;20124;-70
2022/01/11 13:58:29;;;;;;;10.50;3.58;;;;;;;;;;4766077;28;20391;-70
2022/01/11 14:00:56;;;;;;;13.55;4.50;;;;;;;;;;4784148;28;20022;-70
2022/01/11 14:03:22;;;;;;;9.55;3.40;;;;;;;;;;4779145;28;20303;-68
2022/01/11 14:05:48;;;;;;;9.98;3.03;;;;;;;;;;4766890;28;20066;-68
2022/01/11 14:08:15;;;;;;;13.68;5.65;;;;;;;;;;4767551;28;20085;-68
2022/01/11 14:10:53;;;;;;;12.27;4.20;;;;;;;;;;4784519;28;20756;-68
2022/01/11 14:13:19;;;;;;;10.13;2.97;;;;;;;;;;4784124;28;20038;-69
2022/01/11 14:15:46;;;;;;;9.35;2.90;;;;;;;;;;4764116;28;20027;-69
2022/01/11 14:18:22;;;;;;;10.60;3.10;;;;;;;;;;4781593;28;20109;-69
2022/01/11 14:20:48;;;;;;;;;;;;;;;;;;4768330;28;20026;-68
2022/01/11 14:23:15;;;;;;;12.45;2.60;;;;;;;;;;4784122;28;19918;-69
2022/01/11 14:25:49;;;;;;;8.50;2.65;;;;;;;;;;4784853;28;20030;-69
2022/01/11 14:28:17;;;;;;;9.77;2.85;;;;;;;;;;4778997;28;20883;-69
2022/01/11 14:30:43;;;;;;;10.07;2.85;;;;;;;;;;4783807;28;20086;-68
2022/01/11 14:33:26;;;;;;;9.27;2.67;;;;;;;;;;4785581;28;21718;-70
2022/01/11 14:36:04;;;;;;;8.63;3.03;;;;;;;;;;4784710;28;20026;-68
2022/01/11 14:38:42;;;;;;;13.43;6.25;;;;;;;;;;4783086;28;20452;-68
2022/01/11 14:41:10;;;;;;;18.55;8.93;;;;;;;;;;4784546;28;20571;-69
2022/01/11 14:43:36;;;;;;;17.33;9.10;;;;;;;;;;4762225;28;20821;-68
2022/01/11 14:46:13;;;;;;;18.05;9.15;;;;;;;;;;4764363;28;20097;-69
2022/01/11 14:48:41;;;;;;;31.00;18.73;;;;;;;;;;4784355;28;20041;-68
2022/01/11 14:51:18;;;;;;;26.10;15.73;;;;;;;;;;4761821;28;20026;-68
2022/01/11 14:53:48;;;;;;;30.55;20.27;;;;;;;;;;4782915;28;20713;-68
2022/01/11 14:56:16;;;;;;;17.83;9.07;;;;;;;;;;4780922;28;20152;-68
2022/01/11 14:58:48;;;;;;;15.82;6.55;;;;;;;;;;4762360;28;20150;-68
2022/01/11 15:01:21;;;;;;;12.45;4.60;;;;;;;;;;4762919;28;20082;-68